Time;durP1;ratioP1;P1;durP2;ratioP2;P2;SDS_P1;SDS_P2;PMS_P1;PMS_P2;Temp;Humidity;BMP_temperature;BMP_pressure;BME280_temperature;BME280_humidity;BME280_pressure;Samples;Min_cycle;Max_cycle;Signal;HPM_P1;HPM_P2
2021/09/14 00:00:48;;;;;;;4.57;3.90;;;20.50;99.90;;;;;;5076579;28;20921;-79
2021/09/14 00:03:15;;;;;;;4.50;4.10;;;20.40;99.90;;;;;;5082511;28;20229;-80
2021/09/14 00:05:42;;;;;;;4.35;3.95;;;20.40;99.90;;;;;;5086494;28;20274;-79
2021/09/14 00:08:09;;;;;;;4.22;3.92;;;20.30;99.90;;;;;;5075359;28;20230;-79
2021/09/14 00:10:36;;;;;;;4.15;3.83;;;20.30;99.90;;;;;;5076083;28;20737;-79
2021/09/14 00:13:03;;;;;;;4.63;4.25;;;20.20;99.90;;;;;;5074030;28;20237;-80
2021/09/14 00:15:32;;;;;;;4.10;3.80;;;20.20;99.90;;;;;;5078819;28;20722;-79
2021/09/14 00:17:59;;;;;;;4.20;3.90;;;20.10;99.90;;;;;;5072578;28;20259;-80
2021/09/14 00:20:26;;;;;;;4.30;3.90;;;20.10;99.90;;;;;;5079237;28;20235;-79
2021/09/14 00:22:54;;;;;;;4.25;3.95;;;20.10;99.90;;;;;;5076258;28;20580;-79
2021/09/14 00:25:21;;;;;;;4.30;3.92;;;20.10;99.90;;;;;;5079575;28;20221;-78
2021/09/14 00:27:48;;;;;;;4.63;4.25;;;20.10;99.90;;;;;;5077834;28;20230;-79
2021/09/14 00:30:15;;;;;;;4.38;4.07;;;20.10;99.90;;;;;;5075607;28;20225;-79
2021/09/14 00:32:43;;;;;;;4.05;3.75;;;20.10;99.90;;;;;;5076847;28;20217;-80
2021/09/14 00:35:11;;;;;;;4.28;3.97;;;20.10;99.90;;;;;;5075854;28;20234;-80
2021/09/14 00:37:38;;;;;;;4.07;3.78;;;20.10;99.90;;;;;;5078256;28;20281;-79
2021/09/14 00:40:07;;;;;;;4.20;3.90;;;20.00;99.90;;;;;;5080836;28;20727;-80
2021/09/14 00:42:35;;;;;;;4.07;3.78;;;20.00;99.90;;;;;;5081012;28;20217;-78
2021/09/14 00:45:02;;;;;;;4.68;4.22;;;20.00;99.90;;;;;;5072072;28;20233;-80
2021/09/14 00:47:29;;;;;;;4.97;4.57;;;19.90;99.90;;;;;;5074541;28;20275;-79
2021/09/14 00:49:58;;;;;;;4.43;3.97;;;19.90;99.90;;;;;;5072228;28;20263;-79
2021/09/14 00:52:25;;;;;;;3.88;3.58;;;19.80;99.90;;;;;;5071116;28;20574;-82
2021/09/14 00:54:53;;;;;;;4.25;3.95;;;19.80;99.90;;;;;;5074810;28;20222;-79
2021/09/14 00:57:20;;;;;;;4.68;4.38;;;19.80;99.90;;;;;;5091205;28;20239;-81
2021/09/14 00:59:47;;;;;;;4.35;4.05;;;19.80;99.90;;;;;;5078350;28;20286;-80
2021/09/14 01:02:15;;;;;;;4.50;4.10;;;19.80;99.90;;;;;;5072703;28;20234;-80
2021/09/14 01:04:42;;;;;;;4.45;4.15;;;19.80;99.90;;;;;;5076534;28;20244;-80
2021/09/14 01:07:11;;;;;;;4.68;4.28;;;19.80;99.90;;;;;;5070083;28;20225;-79
2021/09/14 01:09:38;;;;;;;4.50;4.15;;;19.80;99.90;;;;;;5077325;28;20217;-79
2021/09/14 01:12:07;;;;;;;4.50;4.10;;;19.80;99.90;;;;;;5080558;28;20213;-81
2021/09/14 01:14:34;;;;;;;4.50;4.20;;;19.80;99.90;;;;;;5075129;28;20237;-81
2021/09/14 01:17:01;;;;;;;5.15;4.75;;;19.80;99.90;;;;;;5079154;28;20672;-80
2021/09/14 01:19:28;;;;;;;4.50;4.15;;;19.70;99.90;;;;;;5077620;28;20278;-81
2021/09/14 01:21:55;;;;;;;4.22;3.88;;;19.70;99.90;;;;;;5080176;28;20232;-78
2021/09/14 01:24:24;;;;;;;4.50;4.10;;;19.70;99.90;;;;;;5082908;28;20278;-81
2021/09/14 01:26:52;;;;;;;4.65;4.28;;;19.70;99.90;;;;;;5071669;28;20730;-79
2021/09/14 01:32:00;;;;;;;4.38;4.07;;;19.60;99.90;;;;;;5080512;28;20222;-80
2021/09/14 01:34:27;;;;;;;4.55;4.20;;;19.60;99.90;;;;;;5081587;28;20282;-80
2021/09/14 01:36:54;;;;;;;4.65;4.32;;;19.60;99.90;;;;;;5087400;28;20787;-80
2021/09/14 01:39:21;;;;;;;4.25;3.95;;;19.50;99.90;;;;;;5081161;28;20229;-79
2021/09/14 01:41:50;;;;;;;4.93;4.53;;;19.50;99.90;;;;;;5082946;28;20365;-80
2021/09/14 01:44:17;;;;;;;4.55;4.25;;;19.50;99.90;;;;;;5085853;28;20221;-79
2021/09/14 01:46:45;;;;;;;4.72;4.32;;;19.50;99.90;;;;;;5081524;28;20275;-80
2021/09/14 01:49:12;;;;;;;4.22;3.92;;;19.40;99.90;;;;;;5079694;28;20221;-80
2021/09/14 01:51:39;;;;;;;5.07;4.65;;;19.40;99.90;;;;;;5094916;28;20535;-81
2021/09/14 01:54:06;;;;;;;4.60;4.30;;;19.40;99.90;;;;;;5083328;28;20228;-81
2021/09/14 01:56:33;;;;;;;4.68;4.35;;;19.40;99.90;;;;;;5079798;28;20733;-80
2021/09/14 01:59:02;;;;;;;4.97;4.53;;;19.30;99.90;;;;;;5086754;28;20236;-80
2021/09/14 02:01:31;;;;;;;4.75;4.35;;;19.30;99.90;;;;;;5085338;28;20348;-80
2021/09/14 02:04:01;;;;;;;4.53;4.22;;;19.30;99.90;;;;;;5083809;28;20225;-80
2021/09/14 02:06:58;;;;;;;4.80;4.35;;;19.20;99.90;;;;;;5079143;28;20726;-80
2021/09/14 02:59:20;;;;;;;5.00;4.60;;;18.80;99.90;;;;;;5057991;28;20221;-79
2021/09/14 03:01:47;;;;;;;4.63;4.32;;;18.70;99.90;;;;;;5081897;28;20639;-80
2021/09/14 03:04:16;;;;;;;6.03;4.90;;;18.70;99.90;;;;;;5075925;28;20283;-80
2021/09/14 03:06:43;;;;;;;5.32;4.82;;;18.60;99.90;;;;;;5079433;28;20244;-80
2021/09/14 03:09:10;;;;;;;5.07;4.68;;;18.60;99.90;;;;;;5078319;28;20699;-80
2021/09/14 03:11:37;;;;;;;5.00;4.57;;;18.60;99.90;;;;;;5080204;28;20290;-80
2021/09/14 03:14:04;;;;;;;5.90;5.40;;;18.60;99.90;;;;;;5083346;28;20233;-80
2021/09/14 03:16:31;;;;;;;5.18;4.78;;;18.50;99.90;;;;;;5080750;28;20221;-80
2021/09/14 03:18:59;;;;;;;4.65;4.28;;;18.50;99.90;;;;;;5080450;28;20275;-80
2021/09/14 03:21:28;;;;;;;4.72;4.43;;;18.50;99.90;;;;;;5082048;28;20228;-79
2021/09/14 03:23:55;;;;;;;4.72;4.40;;;18.50;99.90;;;;;;5079532;28;20228;-79
2021/09/14 03:26:22;;;;;;;4.93;4.53;;;18.50;99.90;;;;;;5073332;28;20224;-80
2021/09/14 03:28:49;;;;;;;5.22;4.82;;;18.50;99.90;;;;;;5079690;28;20236;-80
2021/09/14 03:31:17;;;;;;;5.90;5.40;;;18.50;99.90;;;;;;5079038;28;20222;-80
2021/09/14 03:33:44;;;;;;;5.53;4.45;;;18.40;99.90;;;;;;5076704;28;20218;-79
2021/09/14 03:36:11;;;;;;;5.38;4.18;;;18.40;99.90;;;;;;5081654;28;20225;-80
2021/09/14 03:38:40;;;;;;;4.70;4.30;;;18.40;99.90;;;;;;5095739;28;20271;-80
2021/09/14 03:41:07;;;;;;;4.57;4.18;;;18.40;99.90;;;;;;5078726;28;20274;-80
2021/09/14 03:43:34;;;;;;;5.05;4.53;;;18.40;99.90;;;;;;5082639;28;20237;-79
2021/09/14 03:46:01;;;;;;;4.40;4.10;;;18.40;99.90;;;;;;5081496;28;20230;-80
2021/09/14 03:48:29;;;;;;;5.07;4.68;;;18.40;99.90;;;;;;5081491;28;20279;-80
2021/09/14 03:50:56;;;;;;;4.65;4.25;;;18.40;99.90;;;;;;5080933;28;20221;-79
2021/09/14 03:53:24;;;;;;;5.10;4.70;;;18.40;99.90;;;;;;5077545;28;20699;-81
2021/09/14 03:55:53;;;;;;;4.40;4.10;;;18.40;99.90;;;;;;5077143;28;20556;-81
2021/09/14 03:58:20;;;;;;;4.53;4.13;;;18.40;99.90;;;;;;5074399;28;20726;-79
2021/09/14 04:00:51;;;;;;;5.22;4.80;;;18.40;99.90;;;;;;5077232;28;20762;-80
2021/09/14 04:03:22;;;;;;;5.78;4.30;;;18.40;99.90;;;;;;5077160;28;20651;-79
2021/09/14 04:06:04;;;;;;;5.00;4.60;;;18.40;99.90;;;;;;5075623;28;20241;-79
2021/09/14 04:11:17;;;;;;;4.97;4.57;;;18.30;99.90;;;;;;5079607;28;20283;-80
2021/09/14 04:13:44;;;;;;;4.93;4.53;;;18.30;99.90;;;;;;5079103;28;20683;-81
2021/09/14 04:16:12;;;;;;;5.53;5.03;;;18.30;99.90;;;;;;5078501;28;20206;-80
2021/09/14 04:18:39;;;;;;;5.28;4.50;;;18.30;99.90;;;;;;5073581;28;20298;-78
2021/09/14 04:21:06;;;;;;;4.75;4.35;;;18.30;99.90;;;;;;5081269;28;20231;-80
2021/09/14 04:23:33;;;;;;;5.60;5.10;;;18.30;99.90;;;;;;5074773;28;20630;-78
2021/09/14 04:26:00;;;;;;;5.00;4.60;;;18.30;99.90;;;;;;5079235;28;20224;-79
2021/09/14 04:28:28;;;;;;;5.05;4.60;;;18.30;99.90;;;;;;5080545;28;20229;-80
2021/09/14 04:30:55;;;;;;;5.07;4.68;;;18.30;99.90;;;;;;5099977;28;20239;-79
2021/09/14 04:33:22;;;;;;;5.35;4.93;;;18.30;99.90;;;;;;5079526;28;20251;-80
2021/09/14 04:35:49;;;;;;;5.38;4.88;;;18.20;99.90;;;;;;5086280;28;20703;-80
2021/09/14 04:38:16;;;;;;;5.15;4.75;;;18.20;99.90;;;;;;5080026;28;20213;-80
2021/09/14 04:40:43;;;;;;;5.05;4.65;;;18.20;99.90;;;;;;5081278;28;20270;-80
2021/09/14 04:43:10;;;;;;;5.45;5.05;;;18.20;99.90;;;;;;5078985;28;20218;-80
2021/09/14 04:45:39;;;;;;;5.25;4.85;;;18.10;99.90;;;;;;5081318;28;20218;-80
2021/09/14 04:48:06;;;;;;;6.15;5.65;;;18.10;99.90;;;;;;5081079;28;20225;-79
2021/09/14 04:50:33;;;;;;;5.93;5.43;;;18.10;99.90;;;;;;5078560;28;20233;-80
2021/09/14 04:53:02;;;;;;;5.60;5.10;;;18.10;99.90;;;;;;5083796;28;20236;-80
2021/09/14 04:55:29;;;;;;;5.82;5.32;;;18.00;99.90;;;;;;5081004;28;20243;-80
2021/09/14 04:57:56;;;;;;;4.78;4.45;;;18.00;99.90;;;;;;5078184;28;20294;-77
2021/09/14 05:00:24;;;;;;;5.68;5.18;;;18.00;99.90;;;;;;5079404;28;20209;-79
2021/09/14 05:02:55;;;;;;;5.90;5.40;;;18.00;99.90;;;;;;5077126;28;20225;-80
2021/09/14 05:05:22;;;;;;;5.80;5.32;;;18.00;99.90;;;;;;5073810;28;20287;-80
2021/09/14 05:07:50;;;;;;;5.63;5.13;;;18.00;99.90;;;;;;5075097;28;20226;-80
2021/09/14 05:10:17;;;;;;;5.50;5.07;;;18.00;99.90;;;;;;5078833;28;20731;-79
2021/09/14 05:12:44;;;;;;;5.18;4.78;;;18.00;99.90;;;;;;5082109;28;20278;-79
2021/09/14 05:15:12;;;;;;;5.20;4.80;;;18.00;99.90;;;;;;5083842;28;20286;-80
2021/09/14 05:17:39;;;;;;;5.18;4.78;;;18.00;99.90;;;;;;5079787;28;20236;-80
2021/09/14 05:20:10;;;;;;;5.53;5.03;;;18.10;99.90;;;;;;5079087;28;20630;-80
2021/09/14 05:22:37;;;;;;;5.43;5.03;;;18.10;99.90;;;;;;5081085;28;20267;-77
2021/09/14 05:25:06;;;;;;;5.38;4.97;;;18.10;99.90;;;;;;5096430;28;20224;-80
2021/09/14 05:27:33;;;;;;;5.75;5.25;;;18.20;99.90;;;;;;5077913;28;20694;-80
2021/09/14 05:30:00;;;;;;;5.63;5.22;;;18.20;99.90;;;;;;5076330;28;20224;-79
2021/09/14 05:32:27;;;;;;;5.82;5.35;;;18.30;99.90;;;;;;5081657;28;20714;-80
2021/09/14 05:34:55;;;;;;;5.47;5.00;;;18.50;99.90;;;;;;5079292;28;20230;-80
2021/09/14 05:37:23;;;;;;;6.15;5.65;;;18.60;99.90;;;;;;5079558;28;20664;-79
2021/09/14 05:39:50;;;;;;;5.85;5.35;;;18.70;99.90;;;;;;5075719;28;20228;-79
2021/09/14 05:42:17;;;;;;;6.30;5.75;;;18.90;99.90;;;;;;5082244;28;20217;-79
2021/09/14 05:44:44;;;;;;;6.32;5.72;;;19.00;99.90;;;;;;5076674;28;20225;-79
2021/09/14 05:47:11;;;;;;;7.07;5.68;;;19.00;99.90;;;;;;5081497;28;20781;-81
2021/09/14 05:49:38;;;;;;;6.50;6.00;;;19.00;99.90;;;;;;5078582;28;20229;-80
2021/09/14 05:52:06;;;;;;;7.25;6.15;;;19.10;99.90;;;;;;5079150;28;20229;-80
2021/09/14 05:54:35;;;;;;;6.88;6.18;;;19.40;99.90;;;;;;5076194;28;20221;-79
2021/09/14 05:57:02;;;;;;;6.72;6.15;;;19.50;99.90;;;;;;5082914;28;20220;-80
2021/09/14 05:59:29;;;;;;;7.05;6.43;;;19.50;99.90;;;;;;5080090;28;20610;-80
2021/09/14 06:01:56;;;;;;;6.65;6.00;;;19.60;99.90;;;;;;5079335;28;20283;-79
2021/09/14 06:04:23;;;;;;;6.95;6.35;;;19.80;99.90;;;;;;5082120;28;20222;-80
2021/09/14 06:06:50;;;;;;;6.35;5.85;;;19.80;99.90;;;;;;5076548;28;20640;-80
2021/09/14 06:09:17;;;;;;;6.60;5.97;;;20.00;99.90;;;;;;5078306;28;20217;-81
2021/09/14 06:11:45;;;;;;;7.15;6.55;;;20.30;99.90;;;;;;5082555;28;20234;-81
2021/09/14 06:14:12;;;;;;;6.70;6.18;;;20.50;99.90;;;;;;5076927;28;20286;-80
2021/09/14 06:16:39;;;;;;;7.03;6.43;;;20.80;99.90;;;;;;5078748;28;20232;-80
2021/09/14 06:19:06;;;;;;;7.10;6.53;;;21.00;99.90;;;;;;5080899;28;20217;-80
2021/09/14 06:21:37;;;;;;;6.57;5.97;;;21.10;99.90;;;;;;5077703;28;20279;-81
2021/09/14 06:24:05;;;;;;;6.93;6.32;;;21.20;99.90;;;;;;5084416;28;20237;-80
2021/09/14 06:26:33;;;;;;;6.88;6.28;;;21.40;99.90;;;;;;5077272;28;20222;-79
2021/09/14 06:29:01;;;;;;;7.05;6.45;;;21.60;99.90;;;;;;5079137;28;20584;-81
2021/09/14 06:31:28;;;;;;;7.32;6.65;;;21.70;99.90;;;;;;5080681;28;20267;-81
2021/09/14 06:33:55;;;;;;;7.15;6.55;;;21.60;99.90;;;;;;5075853;28;20226;-80
2021/09/14 06:36:22;;;;;;;7.63;6.80;;;21.50;99.90;;;;;;5081302;28;20222;-81
2021/09/14 06:38:49;;;;;;;8.02;7.32;;;21.50;99.90;;;;;;5072452;28;20228;-78
2021/09/14 06:41:16;;;;;;;7.28;6.57;;;21.70;99.90;;;;;;5069155;28;20234;-78
2021/09/14 06:43:43;;;;;;;7.15;6.55;;;21.80;99.90;;;;;;5067955;28;20745;-78
2021/09/14 06:46:12;;;;;;;7.30;6.70;;;21.90;99.90;;;;;;5064837;28;20301;-78
2021/09/14 06:48:40;;;;;;;7.55;6.78;;;22.00;99.90;;;;;;5065251;28;20222;-76
2021/09/14 06:51:07;;;;;;;7.80;6.97;;;22.20;99.90;;;;;;5068177;28;20221;-78
2021/09/14 06:53:34;;;;;;;6.40;5.80;;;22.20;99.90;;;;;;5065460;28;20275;-78
2021/09/14 06:56:01;;;;;;;7.90;7.20;;;22.30;99.90;;;;;;5061591;28;20723;-78
2021/09/14 06:58:29;;;;;;;7.35;6.75;;;22.40;99.90;;;;;;5065705;28;20312;-79
2021/09/14 07:00:56;;;;;;;7.65;7.00;;;22.70;99.90;;;;;;5069822;28;20737;-78
2021/09/14 07:03:24;;;;;;;7.63;6.85;;;22.80;99.90;;;;;;5066104;28;20947;-78
2021/09/14 07:05:51;;;;;;;7.38;6.78;;;22.80;99.90;;;;;;5065989;28;20294;-78
2021/09/14 07:08:19;;;;;;;8.25;7.45;;;22.90;99.90;;;;;;5068914;28;20871;-77
2021/09/14 07:10:46;;;;;;;8.77;7.97;;;23.00;99.90;;;;;;5067248;28;20221;-77
2021/09/14 07:13:13;;;;;;;8.13;7.43;;;22.90;99.90;;;;;;5082528;28;20229;-78
2021/09/14 07:15:41;;;;;;;8.70;7.90;;;22.90;99.90;;;;;;5066077;28;20778;-79
2021/09/14 07:18:08;;;;;;;8.63;7.78;;;22.80;99.90;;;;;;5065262;28;20310;-77
2021/09/14 07:20:37;;;;;;;8.10;7.40;;;22.90;99.90;;;;;;5070158;28;20306;-79
2021/09/14 07:23:04;;;;;;;8.02;7.05;;;22.90;99.90;;;;;;5068674;28;20228;-79
2021/09/14 07:25:31;;;;;;;8.68;7.75;;;23.00;99.90;;;;;;5070009;28;20248;-78
2021/09/14 07:27:58;;;;;;;8.60;7.85;;;23.10;99.90;;;;;;5071498;28;20233;-78
2021/09/14 07:30:25;;;;;;;8.18;7.38;;;23.20;99.90;;;;;;5065439;28;20661;-78
2021/09/14 07:32:55;;;;;;;8.52;7.78;;;23.20;99.90;;;;;;5072291;28;20519;-78
2021/09/14 07:35:22;;;;;;;8.40;7.32;;;23.20;99.90;;;;;;5071010;28;20232;-79
2021/09/14 07:37:51;;;;;;;7.05;6.45;;;23.20;99.90;;;;;;5068327;28;20257;-77
2021/09/14 07:40:18;;;;;;;8.15;7.45;;;23.40;99.90;;;;;;5057982;28;20286;-77
2021/09/14 07:42:45;;;;;;;7.20;6.60;;;23.70;99.90;;;;;;5062536;28;20237;-76
2021/09/14 07:45:13;;;;;;;7.30;6.70;;;23.80;99.90;;;;;;5064263;28;20239;-76
2021/09/14 07:47:40;;;;;;;7.97;7.18;;;23.80;99.90;;;;;;5065186;28;20287;-78
2021/09/14 07:50:08;;;;;;;8.43;7.63;;;23.70;99.90;;;;;;5064564;28;20245;-78
2021/09/14 07:52:35;;;;;;;8.07;7.40;;;23.80;99.90;;;;;;5067852;28;20238;-76
2021/09/14 07:55:05;;;;;;;8.48;7.53;;;24.00;99.90;;;;;;5066900;28;20236;-78
2021/09/14 07:57:32;;;;;;;8.38;7.60;;;24.10;99.90;;;;;;5062753;28;20218;-77
2021/09/14 07:59:59;;;;;;;7.88;7.18;;;24.30;99.90;;;;;;5061748;28;20299;-78
2021/09/14 08:02:26;;;;;;;7.22;6.63;;;24.40;99.90;;;;;;5065856;28;20221;-78
2021/09/14 08:04:53;;;;;;;8.73;6.85;;;24.20;99.90;;;;;;5071807;28;20320;-78
2021/09/14 08:07:20;;;;;;;7.95;7.15;;;24.20;99.90;;;;;;5078403;28;20845;-78
2021/09/14 08:09:47;;;;;;;7.72;7.05;;;24.50;99.90;;;;;;5064671;28;20220;-79
2021/09/14 08:12:16;;;;;;;8.30;7.60;;;24.50;99.90;;;;;;5074363;28;20868;-79
2021/09/14 08:14:43;;;;;;;7.85;7.15;;;24.40;99.90;;;;;;5069005;28;20591;-78
2021/09/14 08:17:14;;;;;;;8.68;7.68;;;24.40;99.90;;;;;;5073152;28;20230;-78
2021/09/14 08:19:42;;;;;;;8.00;7.28;;;24.20;99.90;;;;;;5071159;28;20242;-80
2021/09/14 08:22:09;;;;;;;6.78;6.18;;;24.40;99.90;;;;;;5073661;28;20221;-80
2021/09/14 08:24:36;;;;;;;7.25;6.65;;;24.60;99.90;;;;;;5067891;28;20698;-80
2021/09/14 08:27:03;;;;;;;8.02;7.30;;;24.90;99.90;;;;;;5075070;28;20734;-79
2021/09/14 08:29:32;;;;;;;7.95;7.25;;;25.20;99.90;;;;;;5069340;28;22681;-79
2021/09/14 08:31:59;;;;;;;7.53;6.60;;;25.50;99.90;;;;;;5067881;28;20309;-78
2021/09/14 08:34:26;;;;;;;7.55;6.85;;;25.50;99.90;;;;;;5064181;28;20229;-77
2021/09/14 08:36:53;;;;;;;8.75;7.85;;;25.70;99.90;;;;;;5065264;28;20953;-78
2021/09/14 08:39:20;;;;;;;7.82;6.63;;;25.90;99.90;;;;;;5061936;28;20213;-76
2021/09/14 08:41:48;;;;;;;7.47;6.65;;;25.90;99.90;;;;;;5068955;28;20374;-77
2021/09/14 08:44:15;;;;;;;7.57;6.88;;;25.90;99.90;;;;;;5069539;28;20279;-77
2021/09/14 08:46:44;;;;;;;7.53;6.85;;;26.00;99.90;;;;;;5070132;28;20229;-75
2021/09/14 08:49:12;;;;;;;7.55;6.95;;;25.80;99.90;;;;;;5066606;28;20243;-76
2021/09/14 08:51:39;;;;;;;6.72;6.13;;;25.80;99.90;;;;;;5063969;28;20878;-77
2021/09/14 08:54:06;;;;;;;7.90;7.22;;;25.80;99.90;;;;;;5068983;28;20369;-77
2021/09/14 08:56:33;;;;;;;7.63;6.93;;;25.80;99.90;;;;;;5059474;28;20221;-76
2021/09/14 08:59:02;;;;;;;8.52;7.72;;;25.90;99.90;;;;;;5068118;28;20239;-76
2021/09/14 09:01:30;;;;;;;8.30;6.47;;;26.00;99.90;;;;;;5063014;28;20233;-75
2021/09/14 09:04:00;;;;;;;8.13;6.95;;;25.90;99.90;;;;;;5058483;28;20233;-77
2021/09/14 09:06:37;;;;;;;6.50;5.90;;;25.90;99.90;;;;;;5066074;28;20233;-77
2021/09/14 09:09:13;;;;;;;7.88;7.10;;;26.00;99.90;;;;;;5061945;28;20229;-76
2021/09/14 09:11:41;;;;;;;6.97;6.38;;;26.40;99.90;;;;;;5064163;28;20232;-77
2021/09/14 09:14:08;;;;;;;8.10;7.30;;;26.40;99.90;;;;;;5063984;28;20963;-77
2021/09/14 09:16:35;;;;;;;7.53;6.93;;;26.20;99.90;;;;;;5063708;28;20267;-77
2021/09/14 09:19:05;;;;;;;8.25;7.10;;;26.20;99.90;;;;;;5060573;28;20768;-76
2021/09/14 09:21:34;;;;;;;7.40;6.65;;;26.50;99.90;;;;;;5062635;28;20229;-76
2021/09/14 09:24:03;;;;;;;7.00;6.38;;;26.60;99.90;;;;;;5061187;28;20229;-76
2021/09/14 09:26:33;;;;;;;7.10;6.40;;;26.60;99.90;;;;;;5062242;28;20234;-77
2021/09/14 09:29:03;;;;;;;7.15;6.57;;;26.70;99.90;;;;;;5062810;28;20233;-77
2021/09/14 09:31:31;;;;;;;8.88;7.22;;;26.70;99.90;;;;;;5063127;28;20209;-76
2021/09/14 09:34:03;;;;;;;7.22;6.43;;;26.90;99.90;;;;;;5065548;28;20665;-78
2021/09/14 09:36:31;;;;;;;6.80;6.30;;;26.80;99.90;;;;;;5061007;28;20256;-78
2021/09/14 09:39:02;;;;;;;7.88;7.03;;;26.60;99.90;;;;;;5063300;28;20228;-78
2021/09/14 09:41:33;;;;;;;8.32;7.35;;;26.70;99.90;;;;;;5060220;28;20229;-78
2021/09/14 09:44:08;;;;;;;7.50;6.80;;;26.70;99.90;;;;;;5063655;28;20244;-78
2021/09/14 09:46:36;;;;;;;7.57;6.95;;;26.70;99.90;;;;;;5062465;28;20738;-78
2021/09/14 09:49:07;;;;;;;6.88;6.28;;;26.80;99.90;;;;;;5064339;28;20222;-79
2021/09/14 09:51:34;;;;;;;6.70;6.10;;;27.00;99.90;;;;;;5063224;28;20221;-77
2021/09/14 09:54:03;;;;;;;7.10;6.35;;;27.40;99.90;;;;;;5064849;28;20248;-79
2021/09/14 09:56:30;;;;;;;10.02;6.72;;;27.90;99.90;;;;;;5066113;28;20230;-78
2021/09/14 09:58:58;;;;;;;7.07;6.50;;;28.00;99.90;;;;;;5066573;28;20299;-79
2021/09/14 10:01:27;;;;;;;7.15;6.55;;;27.80;99.90;;;;;;5068654;28;20220;-78
2021/09/14 10:03:59;;;;;;;6.57;6.07;;;27.50;99.90;;;;;;5067008;28;20222;-77
2021/09/14 10:06:31;;;;;;;7.68;7.03;;;27.30;99.90;;;;;;5069513;28;20631;-78
2021/09/14 10:08:59;;;;;;;6.80;6.20;;;27.30;99.90;;;;;;5065028;28;20240;-78
2021/09/14 10:11:28;;;;;;;7.22;6.53;;;27.30;99.90;;;;;;5067194;28;20220;-78
2021/09/14 10:14:06;;;;;;;7.30;6.70;;;27.30;99.90;;;;;;5055749;28;20218;-78
2021/09/14 10:16:36;;;;;;;6.88;6.18;;;27.30;99.90;;;;;;5054317;28;20221;-78
2021/09/14 10:19:14;;;;;;;6.88;6.28;;;27.40;99.90;;;;;;5066862;28;20232;-77
2021/09/14 10:21:43;;;;;;;7.05;6.40;;;27.60;99.90;;;;;;5070316;28;20231;-78
2021/09/14 10:24:20;;;;;;;7.78;6.57;;;27.50;99.90;;;;;;5065380;28;20802;-78
2021/09/14 10:26:49;;;;;;;6.70;6.10;;;27.40;99.90;;;;;;5066508;28;21965;-76
2021/09/14 10:29:19;;;;;;;8.02;7.13;;;27.40;99.90;;;;;;5068248;28;20226;-78
2021/09/14 10:31:46;;;;;;;7.45;6.72;;;27.50;99.90;;;;;;5059944;28;20232;-78
2021/09/14 10:34:15;;;;;;;7.30;6.32;;;27.80;99.90;;;;;;5061155;28;20237;-79
2021/09/14 10:36:47;;;;;;;8.00;7.25;;;28.00;99.90;;;;;;5068323;28;20225;-77
2021/09/14 10:39:22;;;;;;;6.75;6.05;;;28.00;99.90;;;;;;5066051;28;20270;-78
2021/09/14 10:41:52;;;;;;;6.93;6.22;;;28.00;99.90;;;;;;5066843;28;20236;-80
2021/09/14 10:44:26;;;;;;;6.70;6.10;;;28.10;99.90;;;;;;5071818;28;20222;-79
2021/09/14 10:47:06;;;;;;;6.72;6.18;;;28.40;99.90;;;;;;5076624;28;20304;-81
2021/09/14 10:49:44;;;;;;;8.98;6.32;;;28.70;99.90;;;;;;5069993;28;20220;-78
2021/09/14 10:52:13;;;;;;;6.90;6.25;;;28.80;99.90;;;;;;5065629;28;20216;-80
2021/09/14 10:54:44;;;;;;;7.13;5.68;;;28.70;99.90;;;;;;5069278;28;20217;-80
2021/09/14 10:57:12;;;;;;;6.13;5.63;;;28.60;99.90;;;;;;5073597;28;20304;-78
2021/09/14 10:59:47;;;;;;;6.63;6.13;;;28.50;99.90;;;;;;5076457;28;20217;-79
2021/09/14 11:02:14;;;;;;;7.55;6.85;;;28.50;99.90;;;;;;5072615;28;20282;-78
2021/09/14 11:04:42;;;;;;;8.30;6.25;;;28.60;99.90;;;;;;5065659;28;20901;-77
2021/09/14 11:07:17;;;;;;;6.32;5.80;;;28.60;99.90;;;;;;5071739;28;20248;-79
2021/09/14 11:09:45;;;;;;;7.30;6.63;;;28.70;99.90;;;;;;5071550;28;20217;-77
2021/09/14 11:12:20;;;;;;;6.18;5.65;;;28.70;99.90;;;;;;5073159;28;20241;-79
2021/09/14 11:14:47;;;;;;;7.20;6.50;;;28.60;99.90;;;;;;5069481;28;20927;-78
2021/09/14 11:17:24;;;;;;;8.35;7.03;;;28.50;99.90;;;;;;5068647;28;20236;-77
2021/09/14 11:19:52;;;;;;;6.75;6.07;;;28.50;99.90;;;;;;5072654;28;20224;-77
2021/09/14 11:22:31;;;;;;;7.38;6.10;;;28.60;99.90;;;;;;5070507;28;21033;-77
2021/09/14 11:24:58;;;;;;;7.47;6.13;;;28.80;99.90;;;;;;5070002;28;20258;-76
2021/09/14 11:27:27;;;;;;;7.20;6.60;;;28.90;99.90;;;;;;5066842;28;20223;-77
2021/09/14 11:29:56;;;;;;;6.55;5.95;;;28.80;99.90;;;;;;5071293;28;20226;-78
2021/09/14 11:32:23;;;;;;;6.40;5.80;;;28.70;99.90;;;;;;5072163;28;20636;-77
2021/09/14 11:34:52;;;;;;;6.90;6.20;;;28.80;99.90;;;;;;5078119;28;20249;-77
2021/09/14 11:37:27;;;;;;;6.13;5.63;;;29.00;99.90;;;;;;5071206;28;20222;-77
2021/09/14 11:39:55;;;;;;;6.28;5.70;;;29.10;99.90;;;;;;5079946;28;20217;-77
2021/09/14 11:42:23;;;;;;;7.43;5.25;;;29.30;99.90;;;;;;5073011;28;20283;-77
2021/09/14 11:45:02;;;;;;;7.80;5.68;;;29.40;99.90;;;;;;5070849;28;20228;-78
2021/09/14 11:47:29;;;;;;;6.47;5.85;;;29.40;99.90;;;;;;5077864;28;20213;-77
2021/09/14 11:49:56;;;;;;;6.82;6.22;;;29.40;99.90;;;;;;5076500;28;20229;-76
2021/09/14 11:52:23;;;;;;;6.35;5.75;;;29.50;99.90;;;;;;5072526;28;20209;-77
2021/09/14 11:54:50;;;;;;;6.45;5.85;;;29.40;99.90;;;;;;5071299;28;20236;-77
2021/09/14 11:57:20;;;;;;;5.80;5.30;;;29.30;99.90;;;;;;5073508;28;20221;-78
2021/09/14 11:59:48;;;;;;;6.50;5.90;;;29.60;99.90;;;;;;5077758;28;21035;-78
2021/09/14 12:02:17;;;;;;;6.88;6.25;;;29.80;99.90;;;;;;5074573;28;20218;-78
2021/09/14 12:04:45;;;;;;;6.75;6.15;;;29.70;99.90;;;;;;5067300;28;20336;-76
2021/09/14 12:07:21;;;;;;;6.28;5.70;;;29.50;99.90;;;;;;5071976;28;20229;-77
2021/09/14 12:09:48;;;;;;;6.60;5.40;;;29.40;99.90;;;;;;5073090;28;20233;-77
2021/09/14 12:12:15;;;;;;;7.82;6.40;;;29.30;99.90;;;;;;5079613;28;20224;-78
2021/09/14 12:14:44;;;;;;;7.00;6.30;;;29.20;99.90;;;;;;5072838;28;20294;-76
2021/09/14 12:17:12;;;;;;;6.82;6.20;;;29.20;99.90;;;;;;5071878;28;20221;-77
2021/09/14 12:19:39;;;;;;;6.30;5.72;;;29.40;99.90;;;;;;5076736;28;20302;-77
2021/09/14 12:22:08;;;;;;;7.25;6.25;;;29.40;99.90;;;;;;5073005;28;20217;-77
2021/09/14 12:24:35;;;;;;;6.22;5.63;;;29.30;99.90;;;;;;5071849;28;20226;-77
2021/09/14 12:27:02;;;;;;;6.93;5.80;;;29.30;99.90;;;;;;5075829;28;20222;-77
2021/09/14 12:29:29;;;;;;;6.68;6.18;;;29.40;99.90;;;;;;5071514;28;20507;-77
2021/09/14 12:31:57;;;;;;;6.82;6.22;;;29.60;99.90;;;;;;5074991;28;20228;-76
2021/09/14 12:34:25;;;;;;;6.20;5.70;;;29.80;99.90;;;;;;5074476;28;20243;-78
2021/09/14 12:36:52;;;;;;;5.72;5.32;;;29.80;99.90;;;;;;5071791;28;20286;-76
2021/09/14 12:39:21;;;;;;;9.77;6.70;;;29.90;99.90;;;;;;5071426;28;20225;-77
2021/09/14 12:41:48;;;;;;;6.60;6.10;;;29.80;99.90;;;;;;5069647;28;20225;-76
2021/09/14 12:44:16;;;;;;;6.20;5.70;;;29.80;99.90;;;;;;5071213;28;20786;-77
2021/09/14 12:46:43;;;;;;;5.32;4.82;;;29.90;99.90;;;;;;5067843;28;20236;-76
2021/09/14 12:49:11;;;;;;;5.85;5.35;;;30.10;99.90;;;;;;5076266;28;20309;-76
2021/09/14 12:51:38;;;;;;;6.10;5.60;;;30.30;99.90;;;;;;5072128;28;20711;-76
2021/09/14 12:54:05;;;;;;;7.53;5.65;;;30.30;99.90;;;;;;5070314;28;20222;-77
2021/09/14 12:56:33;;;;;;;6.70;6.13;;;30.20;99.90;;;;;;5065364;28;20244;-76
2021/09/14 12:59:00;;;;;;;6.13;5.53;;;30.00;99.90;;;;;;5068478;28;20229;-76
2021/09/14 13:01:27;;;;;;;6.30;5.72;;;30.00;99.90;;;;;;5065417;28;20226;-75
2021/09/14 13:03:55;;;;;;;6.20;5.60;;;30.10;99.90;;;;;;5073735;28;20217;-76
2021/09/14 13:06:23;;;;;;;6.30;5.65;;;30.20;99.90;;;;;;5068263;28;20226;-76
2021/09/14 13:08:50;;;;;;;5.55;5.05;;;30.20;99.90;;;;;;5068266;28;20226;-76
2021/09/14 13:11:17;;;;;;;7.47;6.20;;;30.20;99.90;;;;;;5071785;28;20226;-78
2021/09/14 13:16:29;;;;;;;6.22;5.63;;;30.10;99.90;;;;;;5074331;28;20883;-77
2021/09/14 13:18:56;;;;;;;6.00;5.40;;;30.00;99.90;;;;;;5072923;28;20221;-76
2021/09/14 13:21:25;;;;;;;6.63;5.95;;;30.00;99.90;;;;;;5073896;28;20221;-76
2021/09/14 13:23:52;;;;;;;7.95;5.13;;;30.00;99.90;;;;;;5073315;28;20478;-76
2021/09/14 13:26:20;;;;;;;5.47;4.97;;;30.00;99.90;;;;;;5074520;28;20229;-77
2021/09/14 13:28:47;;;;;;;5.10;4.70;;;30.00;99.90;;;;;;5066281;28;20217;-76
2021/09/14 13:31:15;;;;;;;5.78;4.57;;;30.10;99.90;;;;;;5075735;28;20217;-76
2021/09/14 13:33:43;;;;;;;5.45;4.80;;;30.10;99.90;;;;;;5076944;28;20601;-76
2021/09/14 13:36:10;;;;;;;5.03;4.63;;;30.10;99.90;;;;;;5071922;28;20233;-76
2021/09/14 13:38:39;;;;;;;4.75;4.35;;;30.20;99.90;;;;;;5071319;28;20299;-77
2021/09/14 13:41:08;;;;;;;5.30;4.85;;;30.30;99.90;;;;;;5072728;28;20233;-76
2021/09/14 13:43:51;;;;;;;5.88;5.28;;;30.50;99.90;;;;;;5076559;28;20229;-76
2021/09/14 13:46:21;;;;;;;5.68;5.18;;;30.60;99.90;;;;;;5077775;28;20225;-76
2021/09/14 13:48:49;;;;;;;5.22;4.72;;;30.60;99.90;;;;;;5075842;28;20270;-76
2021/09/14 13:51:18;;;;;;;5.20;4.63;;;30.60;99.90;;;;;;5074728;28;20255;-76